sensor_id;sensor_type;location;lat;lon;timestamp;pressure;altitude;pressure_sealevel;temperature;humidity
68986;BME280;56035;37.534;-122.308;2022-07-25T00:02:20;100902.13;;;19.65;54.24
68986;BME280;56035;37.534;-122.308;2022-07-25T00:04:47;100895.66;;;19.46;54.59
68986;BME280;56035;37.534;-122.308;2022-07-25T00:07:13;100890.69;;;19.42;54.74
68986;BME280;56035;37.534;-122.308;2022-07-25T00:09:39;100890.72;;;19.37;54.66
68986;BME280;56035;37.534;-122.308;2022-07-25T00:12:05;100895.53;;;19.08;55.14
68986;BME280;56035;37.534;-122.308;2022-07-25T00:14:31;100900.88;;;19.04;55.54
68986;BME280;56035;37.534;-122.308;2022-07-25T00:16:58;100896.44;;;19.03;56.73
68986;BME280;56035;37.534;-122.308;2022-07-25T00:19:24;100890.75;;;18.84;56.61
68986;BME280;56035;37.534;-122.308;2022-07-25T00:21:50;100885.59;;;18.67;56.86
68986;BME280;56035;37.534;-122.308;2022-07-25T00:24:17;100889.25;;;18.63;56.98
68986;BME280;56035;37.534;-122.308;2022-07-25T00:26:43;100882.13;;;18.46;57.19
68986;BME280;56035;37.534;-122.308;2022-07-25T00:29:09;100881.94;;;18.38;57.49
68986;BME280;56035;37.534;-122.308;2022-07-25T00:31:36;100877.19;;;18.38;57.75
68986;BME280;56035;37.534;-122.308;2022-07-25T00:34:02;100878.06;;;18.34;58.36
68986;BME280;56035;37.534;-122.308;2022-07-25T00:36:28;100882.59;;;18.24;58.55
68986;BME280;56035;37.534;-122.308;2022-07-25T00:38:54;100876.50;;;18.17;58.33
68986;BME280;56035;37.534;-122.308;2022-07-25T00:41:20;100880.13;;;18.18;58.81
68986;BME280;56035;37.534;-122.308;2022-07-25T00:43:47;100875.69;;;18.17;59.02
68986;BME280;56035;37.534;-122.308;2022-07-25T00:46:16;100873.47;;;18.14;58.63
68986;BME280;56035;37.534;-122.308;2022-07-25T00:48:43;100868.44;;;18.16;58.81
68986;BME280;56035;37.534;-122.308;2022-07-25T00:51:10;100880.00;;;17.99;59.25
68986;BME280;56035;37.534;-122.308;2022-07-25T00:53:37;100868.59;;;17.95;59.54
68986;BME280;56035;37.534;-122.308;2022-07-25T00:56:05;100866.09;;;17.94;59.74
68986;BME280;56035;37.534;-122.308;2022-07-25T00:58:32;100862.53;;;17.83;59.96
68986;BME280;56035;37.534;-122.308;2022-07-25T01:00:59;100858.34;;;17.75;60.52
68986;BME280;56035;37.534;-122.308;2022-07-25T01:03:25;100856.44;;;17.71;60.57
68986;BME280;56035;37.534;-122.308;2022-07-25T01:05:51;100852.59;;;17.62;60.72
68986;BME280;56035;37.534;-122.308;2022-07-25T01:08:19;100854.63;;;17.46;60.66
68986;BME280;56035;37.534;-122.308;2022-07-25T01:10:46;100850.22;;;17.40;61.26
68986;BME280;56035;37.534;-122.308;2022-07-25T01:13:13;100847.19;;;17.31;61.27
68986;BME280;56035;37.534;-122.308;2022-07-25T01:15:39;100844.72;;;17.19;61.37
68986;BME280;56035;37.534;-122.308;2022-07-25T01:18:05;100850.06;;;17.11;62.22
68986;BME280;56035;37.534;-122.308;2022-07-25T01:20:33;100853.72;;;17.01;62.68
68986;BME280;56035;37.534;-122.308;2022-07-25T01:23:00;100857.34;;;16.86;63.30
68986;BME280;56035;37.534;-122.308;2022-07-25T01:25:26;100854.59;;;16.76;63.54
68986;BME280;56035;37.534;-122.308;2022-07-25T01:27:53;100849.59;;;16.68;63.39
68986;BME280;56035;37.534;-122.308;2022-07-25T01:30:20;100854.31;;;16.57;63.23
68986;BME280;56035;37.534;-122.308;2022-07-25T01:32:47;100847.91;;;16.41;64.41
68986;BME280;56035;37.534;-122.308;2022-07-25T01:35:13;100849.31;;;16.33;65.01
68986;BME280;56035;37.534;-122.308;2022-07-25T01:37:40;100848.50;;;16.23;64.93
68986;BME280;56035;37.534;-122.308;2022-07-25T01:40:07;100847.09;;;16.15;65.16
68986;BME280;56035;37.534;-122.308;2022-07-25T01:42:33;100839.31;;;16.07;65.74
68986;BME280;56035;37.534;-122.308;2022-07-25T01:45:00;100838.47;;;16.01;65.92
68986;BME280;56035;37.534;-122.308;2022-07-25T01:47:27;100841.25;;;15.96;66.15
68986;BME280;56035;37.534;-122.308;2022-07-25T01:49:53;100840.13;;;15.87;66.10
68986;BME280;56035;37.534;-122.308;2022-07-25T01:52:19;100840.38;;;15.75;66.60
68986;BME280;56035;37.534;-122.308;2022-07-25T01:54:45;100847.31;;;15.73;66.74
68986;BME280;56035;37.534;-122.308;2022-07-25T01:57:11;100848.38;;;15.61;67.40
68986;BME280;56035;37.534;-122.308;2022-07-25T01:59:39;100853.91;;;15.51;67.60
68986;BME280;56035;37.534;-122.308;2022-07-25T02:02:08;100842.47;;;15.37;68.26
68986;BME280;56035;37.534;-122.308;2022-07-25T02:04:35;100861.00;;;15.27;68.54
68986;BME280;56035;37.534;-122.308;2022-07-25T02:07:01;100871.53;;;15.19;68.62
68986;BME280;56035;37.534;-122.308;2022-07-25T02:09:27;100875.91;;;15.10;69.39
68986;BME280;56035;37.534;-122.308;2022-07-25T02:11:54;100863.41;;;15.03;69.19
68986;BME280;56035;37.534;-122.308;2022-07-25T02:14:20;100866.13;;;14.92;69.93
68986;BME280;56035;37.534;-122.308;2022-07-25T02:16:48;100869.66;;;14.83;70.61
68986;BME280;56035;37.534;-122.308;2022-07-25T02:19:14;100872.91;;;14.69;70.41
68986;BME280;56035;37.534;-122.308;2022-07-25T02:21:41;100870.59;;;14.56;70.72
68986;BME280;56035;37.534;-122.308;2022-07-25T02:24:07;100875.75;;;14.47;71.26
68986;BME280;56035;37.534;-122.308;2022-07-25T02:26:34;100877.09;;;14.40;71.69
68986;BME280;56035;37.534;-122.308;2022-07-25T02:29:00;100882.50;;;14.24;72.21
68986;BME280;56035;37.534;-122.308;2022-07-25T02:31:26;100878.59;;;14.20;72.81
68986;BME280;56035;37.534;-122.308;2022-07-25T02:33:52;100877.41;;;14.11;73.21
68986;BME280;56035;37.534;-122.308;2022-07-25T02:36:18;100880.91;;;14.01;73.15
68986;BME280;56035;37.534;-122.308;2022-07-25T02:38:44;100883.06;;;13.94;73.54
68986;BME280;56035;37.534;-122.308;2022-07-25T02:41:11;100886.50;;;13.79;74.18
68986;BME280;56035;37.534;-122.308;2022-07-25T02:43:37;100886.97;;;13.71;74.15
68986;BME280;56035;37.534;-122.308;2022-07-25T02:46:03;100886.84;;;13.61;75.24
68986;BME280;56035;37.534;-122.308;2022-07-25T02:48:29;100888.13;;;13.53;75.44
68986;BME280;56035;37.534;-122.308;2022-07-25T02:50:55;100888.31;;;13.47;75.17
68986;BME280;56035;37.534;-122.308;2022-07-25T02:53:21;100892.91;;;13.36;76.00
68986;BME280;56035;37.534;-122.308;2022-07-25T02:55:48;100882.00;;;13.24;76.70
68986;BME280;56035;37.534;-122.308;2022-07-25T02:58:14;100892.63;;;13.16;76.79
68986;BME280;56035;37.534;-122.308;2022-07-25T03:00:40;100899.69;;;13.06;77.50
68986;BME280;56035;37.534;-122.308;2022-07-25T03:03:06;100901.53;;;13.01;77.82
68986;BME280;56035;37.534;-122.308;2022-07-25T03:05:33;100899.97;;;12.88;78.34
68986;BME280;56035;37.534;-122.308;2022-07-25T03:07:59;100897.97;;;12.83;78.70
68986;BME280;56035;37.534;-122.308;2022-07-25T03:10:25;100897.81;;;12.73;79.06
68986;BME280;56035;37.534;-122.308;2022-07-25T03:12:51;100905.69;;;12.64;79.71
68986;BME280;56035;37.534;-122.308;2022-07-25T03:15:17;100901.66;;;12.55;80.31
68986;BME280;56035;37.534;-122.308;2022-07-25T03:17:44;100900.50;;;12.51;80.02
68986;BME280;56035;37.534;-122.308;2022-07-25T03:20:10;100915.66;;;12.49;80.76
68986;BME280;56035;37.534;-122.308;2022-07-25T03:22:36;100916.31;;;12.39;81.61
68986;BME280;56035;37.534;-122.308;2022-07-25T03:25:03;100913.72;;;12.32;81.35
68986;BME280;56035;37.534;-122.308;2022-07-25T03:27:29;100918.06;;;12.28;81.70
68986;BME280;56035;37.534;-122.308;2022-07-25T03:29:58;100926.03;;;12.25;81.99
68986;BME280;56035;37.534;-122.308;2022-07-25T03:32:24;100920.41;;;12.19;82.68
68986;BME280;56035;37.534;-122.308;2022-07-25T03:34:51;100922.16;;;12.09;82.94
68986;BME280;56035;37.534;-122.308;2022-07-25T03:37:17;100932.63;;;12.07;83.68
68986;BME280;56035;37.534;-122.308;2022-07-25T03:39:43;100932.53;;;12.02;83.51
68986;BME280;56035;37.534;-122.308;2022-07-25T03:42:10;100935.44;;;11.95;84.33
68986;BME280;56035;37.534;-122.308;2022-07-25T03:44:37;100942.28;;;11.92;84.65
68986;BME280;56035;37.534;-122.308;2022-07-25T03:47:04;100947.22;;;11.90;84.76
68986;BME280;56035;37.534;-122.308;2022-07-25T03:49:32;100943.88;;;11.88;84.69
68986;BME280;56035;37.534;-122.308;2022-07-25T03:51:59;100945.44;;;11.84;85.29
68986;BME280;56035;37.534;-122.308;2022-07-25T03:54:28;100947.84;;;11.81;85.59
68986;BME280;56035;37.534;-122.308;2022-07-25T03:56:54;100940.88;;;11.78;85.52
68986;BME280;56035;37.534;-122.308;2022-07-25T03:59:20;100938.00;;;11.73;85.97
68986;BME280;56035;37.534;-122.308;2022-07-25T04:01:48;100940.19;;;11.71;86.08
68986;BME280;56035;37.534;-122.308;2022-07-25T04:04:16;100939.84;;;11.67;86.82
68986;BME280;56035;37.534;-122.308;2022-07-25T04:06:43;100940.34;;;11.64;86.28
68986;BME280;56035;37.534;-122.308;2022-07-25T04:09:10;100940.81;;;11.61;86.79
68986;BME280;56035;37.534;-122.308;2022-07-25T04:11:37;100953.19;;;11.59;86.81
68986;BME280;56035;37.534;-122.308;2022-07-25T04:14:03;100952.81;;;11.55;87.62
68986;BME280;56035;37.534;-122.308;2022-07-25T04:16:33;100952.47;;;11.52;87.26
68986;BME280;56035;37.534;-122.308;2022-07-25T04:18:59;100957.66;;;11.48;88.24
68986;BME280;56035;37.534;-122.308;2022-07-25T04:21:29;100969.75;;;11.47;88.29
68986;BME280;56035;37.534;-122.308;2022-07-25T04:23:57;100973.00;;;11.44;88.23
68986;BME280;56035;37.534;-122.308;2022-07-25T04:26:23;100977.09;;;11.41;88.77
68986;BME280;56035;37.534;-122.308;2022-07-25T04:28:50;100978.16;;;11.40;88.70
68986;BME280;56035;37.534;-122.308;2022-07-25T04:31:16;100986.44;;;11.40;89.11
68986;BME280;56035;37.534;-122.308;2022-07-25T04:33:43;100997.38;;;11.35;89.27
68986;BME280;56035;37.534;-122.308;2022-07-25T04:36:09;100994.00;;;11.33;89.32
68986;BME280;56035;37.534;-122.308;2022-07-25T04:38:35;101000.00;;;11.30;89.54
68986;BME280;56035;37.534;-122.308;2022-07-25T04:41:02;100997.50;;;11.29;89.24
68986;BME280;56035;37.534;-122.308;2022-07-25T04:43:28;101002.19;;;11.28;89.49
68986;BME280;56035;37.534;-122.308;2022-07-25T04:45:54;101007.69;;;11.28;89.49
68986;BME280;56035;37.534;-122.308;2022-07-25T04:48:20;101007.09;;;11.26;90.14
68986;BME280;56035;37.534;-122.308;2022-07-25T04:50:49;101005.88;;;11.22;90.06
68986;BME280;56035;37.534;-122.308;2022-07-25T04:53:21;101009.72;;;11.21;89.90
68986;BME280;56035;37.534;-122.308;2022-07-25T04:55:47;101015.00;;;11.22;90.25
68986;BME280;56035;37.534;-122.308;2022-07-25T04:58:13;101021.47;;;11.16;90.24
68986;BME280;56035;37.534;-122.308;2022-07-25T05:00:39;101017.63;;;11.17;90.95
68986;BME280;56035;37.534;-122.308;2022-07-25T05:03:08;101019.81;;;11.15;90.73
68986;BME280;56035;37.534;-122.308;2022-07-25T05:05:34;101024.97;;;11.12;91.40
68986;BME280;56035;37.534;-122.308;2022-07-25T05:08:00;101026.84;;;11.11;91.14
68986;BME280;56035;37.534;-122.308;2022-07-25T05:10:28;101036.00;;;11.12;91.38
68986;BME280;56035;37.534;-122.308;2022-07-25T05:12:54;101036.00;;;11.12;91.87
68986;BME280;56035;37.534;-122.308;2022-07-25T05:15:21;101035.38;;;11.10;91.67
68986;BME280;56035;37.534;-122.308;2022-07-25T05:17:48;101032.47;;;11.05;92.12
68986;BME280;56035;37.534;-122.308;2022-07-25T05:20:14;101035.25;;;11.05;91.94
68986;BME280;56035;37.534;-122.308;2022-07-25T05:22:41;101037.41;;;11.02;91.82
68986;BME280;56035;37.534;-122.308;2022-07-25T05:25:10;101037.63;;;11.01;91.48
68986;BME280;56035;37.534;-122.308;2022-07-25T05:27:37;101046.16;;;10.99;91.95
68986;BME280;56035;37.534;-122.308;2022-07-25T05:30:05;101049.97;;;10.98;92.54
68986;BME280;56035;37.534;-122.308;2022-07-25T05:32:32;101045.81;;;10.96;92.03
68986;BME280;56035;37.534;-122.308;2022-07-25T05:34:58;101045.81;;;10.96;92.47
68986;BME280;56035;37.534;-122.308;2022-07-25T05:37:24;101049.88;;;10.93;92.55
68986;BME280;56035;37.534;-122.308;2022-07-25T05:39:51;101052.84;;;10.92;92.32
68986;BME280;56035;37.534;-122.308;2022-07-25T05:42:17;101061.38;;;10.90;92.17
68986;BME280;56035;37.534;-122.308;2022-07-25T05:44:43;101055.38;;;10.93;92.54
68986;BME280;56035;37.534;-122.308;2022-07-25T05:47:10;101046.03;;;10.94;92.93
68986;BME280;56035;37.534;-122.308;2022-07-25T05:49:36;101048.19;;;10.92;92.45
68986;BME280;56035;37.534;-122.308;2022-07-25T05:52:03;101048.66;;;10.89;92.42
68986;BME280;56035;37.534;-122.308;2022-07-25T05:54:29;101061.84;;;10.87;93.12
68986;BME280;56035;37.534;-122.308;2022-07-25T05:56:56;101054.88;;;10.85;93.14
68986;BME280;56035;37.534;-122.308;2022-07-25T05:59:22;101062.56;;;10.83;93.19
68986;BME280;56035;37.534;-122.308;2022-07-25T06:01:48;101070.56;;;10.84;93.64
68986;BME280;56035;37.534;-122.308;2022-07-25T06:04:14;101061.69;;;10.82;93.65
68986;BME280;56035;37.534;-122.308;2022-07-25T06:06:40;101062.78;;;10.81;93.52
68986;BME280;56035;37.534;-122.308;2022-07-25T06:09:06;101068.53;;;10.80;93.98
68986;BME280;56035;37.534;-122.308;2022-07-25T06:11:33;101062.19;;;10.79;93.96
68986;BME280;56035;37.534;-122.308;2022-07-25T06:13:59;101060.50;;;10.78;93.61
68986;BME280;56035;37.534;-122.308;2022-07-25T06:16:25;101063.03;;;10.80;94.21
68986;BME280;56035;37.534;-122.308;2022-07-25T06:18:51;101071.75;;;10.76;93.76
68986;BME280;56035;37.534;-122.308;2022-07-25T06:21:17;101070.06;;;10.75;94.28
68986;BME280;56035;37.534;-122.308;2022-07-25T06:23:43;101060.97;;;10.75;94.01
68986;BME280;56035;37.534;-122.308;2022-07-25T06:26:10;101074.38;;;10.71;94.04
68986;BME280;56035;37.534;-122.308;2022-07-25T06:28:36;101061.91;;;10.69;94.03
68986;BME280;56035;37.534;-122.308;2022-07-25T06:31:03;101056.16;;;10.70;94.47
68986;BME280;56035;37.534;-122.308;2022-07-25T06:33:29;101059.16;;;10.69;94.15
68986;BME280;56035;37.534;-122.308;2022-07-25T06:35:55;101054.72;;;10.68;94.34
68986;BME280;56035;37.534;-122.308;2022-07-25T06:38:21;101067.41;;;10.69;93.88
68986;BME280;56035;37.534;-122.308;2022-07-25T06:40:47;101057.34;;;10.63;93.80
68986;BME280;56035;37.534;-122.308;2022-07-25T06:43:13;101069.44;;;10.62;93.85
68986;BME280;56035;37.534;-122.308;2022-07-25T06:45:40;101062.00;;;10.62;94.17
68986;BME280;56035;37.534;-122.308;2022-07-25T06:48:14;101056.59;;;10.55;93.88
68986;BME280;56035;37.534;-122.308;2022-07-25T06:50:41;101064.63;;;10.57;94.44
68986;BME280;56035;37.534;-122.308;2022-07-25T06:53:07;101062.72;;;10.58;94.95
68986;BME280;56035;37.534;-122.308;2022-07-25T06:55:34;101068.44;;;10.56;95.01
68986;BME280;56035;37.534;-122.308;2022-07-25T06:58:00;101066.41;;;10.51;95.17
68986;BME280;56035;37.534;-122.308;2022-07-25T07:00:26;101065.94;;;10.54;94.92
68986;BME280;56035;37.534;-122.308;2022-07-25T07:02:57;101061.16;;;10.50;95.03
68986;BME280;56035;37.534;-122.308;2022-07-25T07:05:31;101060.06;;;10.51;94.79
68986;BME280;56035;37.534;-122.308;2022-07-25T07:07:58;101059.44;;;10.49;94.71
68986;BME280;56035;37.534;-122.308;2022-07-25T07:10:24;101060.28;;;10.49;94.75
68986;BME280;56035;37.534;-122.308;2022-07-25T07:13:01;101057.41;;;10.44;94.66
68986;BME280;56035;37.534;-122.308;2022-07-25T07:15:27;101064.59;;;10.45;95.09
68986;BME280;56035;37.534;-122.308;2022-07-25T07:17:53;101067.59;;;10.44;95.54
68986;BME280;56035;37.534;-122.308;2022-07-25T07:20:20;101063.38;;;10.41;95.26
68986;BME280;56035;37.534;-122.308;2022-07-25T07:22:47;101056.78;;;10.42;95.66
68986;BME280;56035;37.534;-122.308;2022-07-25T07:25:15;101054.50;;;10.39;95.46
68986;BME280;56035;37.534;-122.308;2022-07-25T07:27:42;101052.59;;;10.40;95.74
68986;BME280;56035;37.534;-122.308;2022-07-25T07:30:09;101054.75;;;10.38;95.92
68986;BME280;56035;37.534;-122.308;2022-07-25T07:32:35;101047.06;;;10.40;96.03
68986;BME280;56035;37.534;-122.308;2022-07-25T07:35:02;101047.94;;;10.40;96.23
68986;BME280;56035;37.534;-122.308;2022-07-25T07:37:28;101055.34;;;10.40;95.75
68986;BME280;56035;37.534;-122.308;2022-07-25T07:39:55;101053.66;;;10.39;95.81
68986;BME280;56035;37.534;-122.308;2022-07-25T07:42:21;101050.06;;;10.38;96.14
68986;BME280;56035;37.534;-122.308;2022-07-25T07:44:47;101049.00;;;10.39;96.01
68986;BME280;56035;37.534;-122.308;2022-07-25T07:47:13;101045.78;;;10.42;96.09
68986;BME280;56035;37.534;-122.308;2022-07-25T07:49:39;101050.44;;;10.42;96.21
68986;BME280;56035;37.534;-122.308;2022-07-25T07:52:05;101053.56;;;10.45;96.18
68986;BME280;56035;37.534;-122.308;2022-07-25T07:54:31;101048.53;;;10.42;95.70
68986;BME280;56035;37.534;-122.308;2022-07-25T07:57:16;101050.81;;;10.45;96.18
68986;BME280;56035;37.534;-122.308;2022-07-25T07:59:42;101043.75;;;10.49;95.91
68986;BME280;56035;37.534;-122.308;2022-07-25T08:02:08;101049.88;;;10.51;96.10
68986;BME280;56035;37.534;-122.308;2022-07-25T08:04:34;101049.88;;;10.51;95.80
68986;BME280;56035;37.534;-122.308;2022-07-25T08:07:01;101039.94;;;10.50;96.25
68986;BME280;56035;37.534;-122.308;2022-07-25T08:09:27;101033.13;;;10.53;95.91
68986;BME280;56035;37.534;-122.308;2022-07-25T08:11:53;101039.00;;;10.57;95.48
68986;BME280;56035;37.534;-122.308;2022-07-25T08:14:19;101040.22;;;10.61;95.49
68986;BME280;56035;37.534;-122.308;2022-07-25T08:16:45;101040.81;;;10.63;95.29
68986;BME280;56035;37.534;-122.308;2022-07-25T08:19:11;101040.31;;;10.66;95.05
68986;BME280;56035;37.534;-122.308;2022-07-25T08:21:37;101040.22;;;10.72;94.49
68986;BME280;56035;37.534;-122.308;2022-07-25T08:24:04;101045.88;;;10.77;94.40
68986;BME280;56035;37.534;-122.308;2022-07-25T08:26:30;101054.28;;;10.83;94.16
68986;BME280;56035;37.534;-122.308;2022-07-25T08:28:58;101059.31;;;10.86;93.69
68986;BME280;56035;37.534;-122.308;2022-07-25T08:31:25;101062.19;;;10.91;93.72
68986;BME280;56035;37.534;-122.308;2022-07-25T08:33:52;101057.66;;;10.96;93.09
68986;BME280;56035;37.534;-122.308;2022-07-25T08:36:18;101059.94;;;10.99;92.92
68986;BME280;56035;37.534;-122.308;2022-07-25T08:38:44;101059.47;;;11.02;92.95
68986;BME280;56035;37.534;-122.308;2022-07-25T08:41:11;101059.56;;;11.08;92.96
68986;BME280;56035;37.534;-122.308;2022-07-25T08:43:38;101052.75;;;11.10;92.77
68986;BME280;56035;37.534;-122.308;2022-07-25T08:46:04;101055.03;;;11.13;92.29
68986;BME280;56035;37.534;-122.308;2022-07-25T08:48:31;101051.19;;;11.14;92.67
68986;BME280;56035;37.534;-122.308;2022-07-25T08:50:58;101047.38;;;11.15;92.46
68986;BME280;56035;37.534;-122.308;2022-07-25T08:53:25;101052.88;;;11.15;92.53
68986;BME280;56035;37.534;-122.308;2022-07-25T08:55:52;101041.59;;;11.17;92.14
68986;BME280;56035;37.534;-122.308;2022-07-25T08:58:18;101047.72;;;11.19;91.58
68986;BME280;56035;37.534;-122.308;2022-07-25T09:00:44;101053.00;;;11.20;91.98
68986;BME280;56035;37.534;-122.308;2022-07-25T09:03:11;101056.59;;;11.21;91.36
68986;BME280;56035;37.534;-122.308;2022-07-25T09:05:38;101057.41;;;11.21;91.65
68986;BME280;56035;37.534;-122.308;2022-07-25T09:08:13;101053.59;;;11.22;90.96
68986;BME280;56035;37.534;-122.308;2022-07-25T09:10:45;101056.13;;;11.24;91.06
68986;BME280;56035;37.534;-122.308;2022-07-25T09:13:12;101055.28;;;11.23;91.13
68986;BME280;56035;37.534;-122.308;2022-07-25T09:15:43;101065.94;;;11.20;90.33
68986;BME280;56035;37.534;-122.308;2022-07-25T09:18:11;101060.78;;;11.23;90.85
68986;BME280;56035;37.534;-122.308;2022-07-25T09:23:06;101064.16;;;11.25;90.68
68986;BME280;56035;37.534;-122.308;2022-07-25T09:25:33;101070.25;;;11.28;90.52
68986;BME280;56035;37.534;-122.308;2022-07-25T09:28:16;101067.28;;;11.29;90.78
68986;BME280;56035;37.534;-122.308;2022-07-25T09:30:56;101060.69;;;11.30;90.01
68986;BME280;56035;37.534;-122.308;2022-07-25T09:33:24;101064.63;;;11.34;89.92
68986;BME280;56035;37.534;-122.308;2022-07-25T09:35:51;101059.72;;;11.36;89.64
68986;BME280;56035;37.534;-122.308;2022-07-25T09:38:17;101064.97;;;11.38;89.73
68986;BME280;56035;37.534;-122.308;2022-07-25T09:40:56;101063.66;;;11.40;89.51
68986;BME280;56035;37.534;-122.308;2022-07-25T09:43:33;101068.72;;;11.43;89.63
68986;BME280;56035;37.534;-122.308;2022-07-25T09:46:01;101058.75;;;11.42;89.99
68986;BME280;56035;37.534;-122.308;2022-07-25T09:48:27;101058.28;;;11.45;90.16
68986;BME280;56035;37.534;-122.308;2022-07-25T09:50:53;101056.97;;;11.48;89.59
68986;BME280;56035;37.534;-122.308;2022-07-25T09:53:20;101056.97;;;11.48;89.71
68986;BME280;56035;37.534;-122.308;2022-07-25T09:55:46;101049.53;;;11.48;90.25
68986;BME280;56035;37.534;-122.308;2022-07-25T09:58:12;101056.72;;;11.49;89.56
68986;BME280;56035;37.534;-122.308;2022-07-25T10:00:40;101066.44;;;11.52;89.81
68986;BME280;56035;37.534;-122.308;2022-07-25T10:03:28;101064.50;;;11.53;89.38
68986;BME280;56035;37.534;-122.308;2022-07-25T10:08:38;101073.63;;;11.53;89.47
68986;BME280;56035;37.534;-122.308;2022-07-25T10:11:16;101063.19;;;11.55;89.44
68986;BME280;56035;37.534;-122.308;2022-07-25T10:13:43;101069.56;;;11.56;89.24
68986;BME280;56035;37.534;-122.308;2022-07-25T10:16:23;101068.22;;;11.58;89.15
68986;BME280;56035;37.534;-122.308;2022-07-25T10:18:56;101077.97;;;11.61;88.98
68986;BME280;56035;37.534;-122.308;2022-07-25T10:21:24;101077.34;;;11.59;89.19
68986;BME280;56035;37.534;-122.308;2022-07-25T10:24:07;101065.00;;;11.61;88.99
68986;BME280;56035;37.534;-122.308;2022-07-25T10:26:38;101081.28;;;11.63;89.13
68986;BME280;56035;37.534;-122.308;2022-07-25T10:29:09;101073.00;;;11.63;89.05
68986;BME280;56035;37.534;-122.308;2022-07-25T10:31:40;101074.09;;;11.62;89.17
68986;BME280;56035;37.534;-122.308;2022-07-25T10:34:09;101074.09;;;11.62;89.50
68986;BME280;56035;37.534;-122.308;2022-07-25T10:36:49;101076.59;;;11.63;88.82
68986;BME280;56035;37.534;-122.308;2022-07-25T10:39:18;101077.22;;;11.65;88.88
68986;BME280;56035;37.534;-122.308;2022-07-25T10:42:04;101073.00;;;11.63;88.73
68986;BME280;56035;37.534;-122.308;2022-07-25T10:47:11;101075.91;;;11.68;88.97
68986;BME280;56035;37.534;-122.308;2022-07-25T10:49:40;101076.47;;;11.70;88.48
68986;BME280;56035;37.534;-122.308;2022-07-25T10:52:13;101075.66;;;11.69;88.23
68986;BME280;56035;37.534;-122.308;2022-07-25T10:54:40;101069.91;;;11.71;88.43
68986;BME280;56035;37.534;-122.308;2022-07-25T10:57:14;101079.00;;;11.71;88.21
68986;BME280;56035;37.534;-122.308;2022-07-25T10:59:40;101080.47;;;11.74;88.20
68986;BME280;56035;37.534;-122.308;2022-07-25T11:02:08;101073.59;;;11.77;88.17
68986;BME280;56035;37.534;-122.308;2022-07-25T11:04:44;101082.97;;;11.76;88.30
68986;BME280;56035;37.534;-122.308;2022-07-25T11:07:15;101081.53;;;11.73;88.01
68986;BME280;56035;37.534;-122.308;2022-07-25T11:09:56;101088.75;;;11.74;88.58
68986;BME280;56035;37.534;-122.308;2022-07-25T11:12:22;101090.41;;;11.75;88.46
68986;BME280;56035;37.534;-122.308;2022-07-25T11:14:48;101088.75;;;11.74;87.97
68986;BME280;56035;37.534;-122.308;2022-07-25T11:17:23;101096.75;;;11.76;87.89
68986;BME280;56035;37.534;-122.308;2022-07-25T11:20:01;101094.84;;;11.76;87.88
68986;BME280;56035;37.534;-122.308;2022-07-25T11:22:29;101089.09;;;11.78;87.51
68986;BME280;56035;37.534;-122.308;2022-07-25T11:24:56;101096.28;;;11.79;88.09
68986;BME280;56035;37.534;-122.308;2022-07-25T11:27:25;101094.34;;;11.79;88.23
68986;BME280;56035;37.534;-122.308;2022-07-25T11:29:52;101094.34;;;11.79;87.61
68986;BME280;56035;37.534;-122.308;2022-07-25T11:32:18;101097.72;;;11.81;88.18
68986;BME280;56035;37.534;-122.308;2022-07-25T11:34:50;101086.44;;;11.83;87.98
68986;BME280;56035;37.534;-122.308;2022-07-25T11:37:19;101094.50;;;11.84;87.93
68986;BME280;56035;37.534;-122.308;2022-07-25T11:39:46;101092.78;;;11.83;88.03
68986;BME280;56035;37.534;-122.308;2022-07-25T11:42:15;101098.94;;;11.85;87.65
68986;BME280;56035;37.534;-122.308;2022-07-25T11:44:44;101100.38;;;11.88;87.83
68986;BME280;56035;37.534;-122.308;2022-07-25T11:49:52;101097.38;;;11.89;87.71
68986;BME280;56035;37.534;-122.308;2022-07-25T11:52:26;101093.56;;;11.90;87.72
68986;BME280;56035;37.534;-122.308;2022-07-25T11:55:07;101100.13;;;11.89;87.93
68986;BME280;56035;37.534;-122.308;2022-07-25T11:57:38;101092.94;;;11.88;87.63
68986;BME280;56035;37.534;-122.308;2022-07-25T12:00:14;101094.97;;;11.93;87.45
68986;BME280;56035;37.534;-122.308;2022-07-25T12:02:41;101093.91;;;11.94;87.58
68986;BME280;56035;37.534;-122.308;2022-07-25T12:05:09;101096.41;;;11.95;87.48
68986;BME280;56035;37.534;-122.308;2022-07-25T12:07:37;101104.81;;;12.01;87.15
68986;BME280;56035;37.534;-122.308;2022-07-25T12:10:09;101101.44;;;11.99;87.49
68986;BME280;56035;37.534;-122.308;2022-07-25T12:15:10;101105.66;;;12.01;87.10
68986;BME280;56035;37.534;-122.308;2022-07-25T12:17:37;101104.56;;;12.02;87.48
68986;BME280;56035;37.534;-122.308;2022-07-25T12:20:03;101103.22;;;12.05;87.42
68986;BME280;56035;37.534;-122.308;2022-07-25T12:22:30;101106.00;;;12.05;86.99
68986;BME280;56035;37.534;-122.308;2022-07-25T12:24:56;101107.91;;;12.04;87.06
68986;BME280;56035;37.534;-122.308;2022-07-25T12:27:22;101107.66;;;12.06;86.87
68986;BME280;56035;37.534;-122.308;2022-07-25T12:29:48;101104.66;;;12.07;87.16
68986;BME280;56035;37.534;-122.308;2022-07-25T12:32:14;101108.28;;;12.08;87.04
68986;BME280;56035;37.534;-122.308;2022-07-25T12:34:41;101111.03;;;12.08;86.90
68986;BME280;56035;37.534;-122.308;2022-07-25T12:37:08;101106.13;;;12.10;86.58